Jackson (JAN/KJAN)

Map

Information

Location
Jackson, Mississippi
Local Time
23:59 / 11:59 pm
GMT Time
05:59 / 5:59 am
Gates
Unassigned
No FAA reported delays
METAR KJAN 140554Z AUTO 19004KT 10SM CLR 07/M01 A2994 RMK AO2 SLP138 T00721011 10117 20067 401721028 50004
TAF KJAN 132330Z 1400/1424 19011KT P6SM SKC FM141700 34004KT P6SM SKC